sensor_id;sensor_type;location;lat;lon;timestamp;P1;durP1;ratioP1;P2;durP2;ratioP2
77298;SDS011;66361;52.034;20.656;2023-06-14T00:03:48;13.82;;;10.93;;
77298;SDS011;66361;52.034;20.656;2023-06-14T00:07:52;16.55;;;11.07;;
77298;SDS011;66361;52.034;20.656;2023-06-14T00:11:56;16.73;;;11.27;;
77298;SDS011;66361;52.034;20.656;2023-06-14T00:15:58;15.85;;;12.82;;
77298;SDS011;66361;52.034;20.656;2023-06-14T00:20:05;16.35;;;11.43;;
77298;SDS011;66361;52.034;20.656;2023-06-14T00:24:10;15.23;;;10.85;;
77298;SDS011;66361;52.034;20.656;2023-06-14T00:28:13;16.48;;;12.90;;
77298;SDS011;66361;52.034;20.656;2023-06-14T00:36:20;17.45;;;12.70;;
77298;SDS011;66361;52.034;20.656;2023-06-14T00:40:28;19.42;;;12.95;;
77298;SDS011;66361;52.034;20.656;2023-06-14T00:44:31;17.63;;;12.52;;
77298;SDS011;66361;52.034;20.656;2023-06-14T00:48:34;19.75;;;12.70;;
77298;SDS011;66361;52.034;20.656;2023-06-14T00:52:39;19.98;;;13.45;;
77298;SDS011;66361;52.034;20.656;2023-06-14T00:56:44;18.17;;;12.88;;
77298;SDS011;66361;52.034;20.656;2023-06-14T01:00:47;18.42;;;12.82;;
77298;SDS011;66361;52.034;20.656;2023-06-14T01:04:52;19.05;;;12.18;;
77298;SDS011;66361;52.034;20.656;2023-06-14T01:08:58;25.13;;;14.20;;
77298;SDS011;66361;52.034;20.656;2023-06-14T01:13:12;16.70;;;12.00;;
77298;SDS011;66361;52.034;20.656;2023-06-14T01:17:22;18.15;;;12.32;;
77298;SDS011;66361;52.034;20.656;2023-06-14T01:21:28;18.35;;;14.68;;
77298;SDS011;66361;52.034;20.656;2023-06-14T01:25:33;20.40;;;14.52;;
77298;SDS011;66361;52.034;20.656;2023-06-14T01:29:36;16.77;;;13.55;;
77298;SDS011;66361;52.034;20.656;2023-06-14T01:33:40;24.80;;;14.02;;
77298;SDS011;66361;52.034;20.656;2023-06-14T01:37:43;22.25;;;14.55;;
77298;SDS011;66361;52.034;20.656;2023-06-14T01:41:50;21.38;;;13.85;;
77298;SDS011;66361;52.034;20.656;2023-06-14T01:45:54;20.63;;;15.00;;
77298;SDS011;66361;52.034;20.656;2023-06-14T01:50:00;21.58;;;14.30;;
77298;SDS011;66361;52.034;20.656;2023-06-14T01:54:04;21.98;;;14.10;;
77298;SDS011;66361;52.034;20.656;2023-06-14T01:58:08;21.45;;;14.73;;
77298;SDS011;66361;52.034;20.656;2023-06-14T02:02:15;20.77;;;15.00;;
77298;SDS011;66361;52.034;20.656;2023-06-14T02:06:18;21.67;;;15.07;;
77298;SDS011;66361;52.034;20.656;2023-06-14T02:10:21;21.05;;;13.68;;
77298;SDS011;66361;52.034;20.656;2023-06-14T02:14:26;21.00;;;14.60;;
77298;SDS011;66361;52.034;20.656;2023-06-14T02:18:29;22.38;;;14.40;;
77298;SDS011;66361;52.034;20.656;2023-06-14T02:22:33;24.67;;;15.27;;
77298;SDS011;66361;52.034;20.656;2023-06-14T02:26:36;21.35;;;13.48;;
77298;SDS011;66361;52.034;20.656;2023-06-14T02:30:41;24.42;;;16.65;;
77298;SDS011;66361;52.034;20.656;2023-06-14T02:34:44;21.75;;;14.43;;
77298;SDS011;66361;52.034;20.656;2023-06-14T02:38:50;20.52;;;13.70;;
77298;SDS011;66361;52.034;20.656;2023-06-14T02:42:55;22.08;;;14.60;;
77298;SDS011;66361;52.034;20.656;2023-06-14T02:47:00;20.60;;;14.75;;
77298;SDS011;66361;52.034;20.656;2023-06-14T02:51:03;18.33;;;13.13;;
77298;SDS011;66361;52.034;20.656;2023-06-14T02:55:09;21.67;;;15.10;;
77298;SDS011;66361;52.034;20.656;2023-06-14T02:59:16;19.17;;;12.38;;
77298;SDS011;66361;52.034;20.656;2023-06-14T03:03:21;20.00;;;13.05;;
77298;SDS011;66361;52.034;20.656;2023-06-14T03:07:25;18.33;;;12.50;;
77298;SDS011;66361;52.034;20.656;2023-06-14T03:11:31;19.70;;;14.10;;
77298;SDS011;66361;52.034;20.656;2023-06-14T03:15:34;18.63;;;13.55;;
77298;SDS011;66361;52.034;20.656;2023-06-14T03:19:39;19.02;;;13.93;;
77298;SDS011;66361;52.034;20.656;2023-06-14T03:23:43;18.63;;;13.35;;
77298;SDS011;66361;52.034;20.656;2023-06-14T03:27:47;18.70;;;13.02;;
77298;SDS011;66361;52.034;20.656;2023-06-14T03:31:57;18.80;;;13.57;;
77298;SDS011;66361;52.034;20.656;2023-06-14T03:36:03;18.35;;;13.25;;
77298;SDS011;66361;52.034;20.656;2023-06-14T03:40:06;15.90;;;12.13;;
77298;SDS011;66361;52.034;20.656;2023-06-14T03:44:10;14.65;;;10.90;;
77298;SDS011;66361;52.034;20.656;2023-06-14T03:48:13;16.15;;;10.65;;
77298;SDS011;66361;52.034;20.656;2023-06-14T03:52:17;13.70;;;11.10;;
77298;SDS011;66361;52.034;20.656;2023-06-14T03:56:21;12.45;;;9.63;;
77298;SDS011;66361;52.034;20.656;2023-06-14T04:00:24;12.45;;;8.70;;
77298;SDS011;66361;52.034;20.656;2023-06-14T04:04:27;12.98;;;10.35;;
77298;SDS011;66361;52.034;20.656;2023-06-14T04:08:32;14.45;;;10.60;;
77298;SDS011;66361;52.034;20.656;2023-06-14T04:12:35;13.07;;;10.15;;
77298;SDS011;66361;52.034;20.656;2023-06-14T04:16:44;13.27;;;10.25;;
77298;SDS011;66361;52.034;20.656;2023-06-14T04:20:47;13.52;;;9.32;;
77298;SDS011;66361;52.034;20.656;2023-06-14T04:24:52;11.60;;;8.10;;
77298;SDS011;66361;52.034;20.656;2023-06-14T04:29:05;12.70;;;8.50;;
77298;SDS011;66361;52.034;20.656;2023-06-14T04:33:08;8.77;;;7.70;;
77298;SDS011;66361;52.034;20.656;2023-06-14T04:37:12;8.85;;;7.95;;
77298;SDS011;66361;52.034;20.656;2023-06-14T04:41:17;8.90;;;7.43;;
77298;SDS011;66361;52.034;20.656;2023-06-14T04:45:20;10.10;;;7.63;;
77298;SDS011;66361;52.034;20.656;2023-06-14T04:49:23;9.75;;;7.43;;
77298;SDS011;66361;52.034;20.656;2023-06-14T04:53:28;11.07;;;7.60;;
77298;SDS011;66361;52.034;20.656;2023-06-14T04:57:33;9.82;;;7.93;;
77298;SDS011;66361;52.034;20.656;2023-06-14T05:01:37;9.02;;;7.18;;
77298;SDS011;66361;52.034;20.656;2023-06-14T05:05:40;11.68;;;7.90;;
77298;SDS011;66361;52.034;20.656;2023-06-14T05:09:43;9.55;;;7.18;;
77298;SDS011;66361;52.034;20.656;2023-06-14T05:13:48;8.68;;;7.80;;
77298;SDS011;66361;52.034;20.656;2023-06-14T05:17:52;12.45;;;7.95;;
77298;SDS011;66361;52.034;20.656;2023-06-14T05:21:57;9.25;;;7.82;;
77298;SDS011;66361;52.034;20.656;2023-06-14T05:26:00;10.40;;;7.15;;
77298;SDS011;66361;52.034;20.656;2023-06-14T05:30:07;7.90;;;5.63;;
77298;SDS011;66361;52.034;20.656;2023-06-14T05:34:11;10.40;;;7.63;;
77298;SDS011;66361;52.034;20.656;2023-06-14T05:38:14;8.07;;;6.05;;
77298;SDS011;66361;52.034;20.656;2023-06-14T05:42:17;8.35;;;6.60;;
77298;SDS011;66361;52.034;20.656;2023-06-14T05:46:22;8.15;;;7.13;;
77298;SDS011;66361;52.034;20.656;2023-06-14T05:50:27;8.25;;;6.05;;
77298;SDS011;66361;52.034;20.656;2023-06-14T05:54:30;13.13;;;6.85;;
77298;SDS011;66361;52.034;20.656;2023-06-14T05:58:33;7.50;;;6.20;;
77298;SDS011;66361;52.034;20.656;2023-06-14T06:02:38;7.28;;;6.03;;
77298;SDS011;66361;52.034;20.656;2023-06-14T06:06:41;8.95;;;5.63;;
77298;SDS011;66361;52.034;20.656;2023-06-14T06:10:44;6.82;;;5.68;;
77298;SDS011;66361;52.034;20.656;2023-06-14T06:14:47;8.50;;;6.57;;
77298;SDS011;66361;52.034;20.656;2023-06-14T06:18:52;10.45;;;5.88;;
77298;SDS011;66361;52.034;20.656;2023-06-14T06:22:55;8.60;;;5.53;;
77298;SDS011;66361;52.034;20.656;2023-06-14T06:26:58;8.75;;;5.75;;
77298;SDS011;66361;52.034;20.656;2023-06-14T06:31:01;6.25;;;5.63;;
77298;SDS011;66361;52.034;20.656;2023-06-14T06:35:07;8.23;;;5.20;;
77298;SDS011;66361;52.034;20.656;2023-06-14T06:39:12;5.75;;;5.00;;
77298;SDS011;66361;52.034;20.656;2023-06-14T06:43:16;6.15;;;4.90;;
77298;SDS011;66361;52.034;20.656;2023-06-14T06:47:19;6.07;;;4.95;;
77298;SDS011;66361;52.034;20.656;2023-06-14T06:51:23;5.55;;;4.72;;
77298;SDS011;66361;52.034;20.656;2023-06-14T06:55:26;6.35;;;5.15;;
77298;SDS011;66361;52.034;20.656;2023-06-14T06:59:29;6.15;;;5.28;;
77298;SDS011;66361;52.034;20.656;2023-06-14T07:03:34;7.70;;;6.28;;
77298;SDS011;66361;52.034;20.656;2023-06-14T07:07:39;6.65;;;5.35;;
77298;SDS011;66361;52.034;20.656;2023-06-14T07:11:43;7.28;;;6.38;;
77298;SDS011;66361;52.034;20.656;2023-06-14T07:15:46;7.43;;;5.72;;
77298;SDS011;66361;52.034;20.656;2023-06-14T07:19:49;7.90;;;4.63;;
77298;SDS011;66361;52.034;20.656;2023-06-14T07:23:54;6.75;;;5.40;;
77298;SDS011;66361;52.034;20.656;2023-06-14T07:27:57;6.53;;;5.75;;
77298;SDS011;66361;52.034;20.656;2023-06-14T07:32:00;7.03;;;4.72;;
77298;SDS011;66361;52.034;20.656;2023-06-14T07:36:03;6.90;;;4.88;;
77298;SDS011;66361;52.034;20.656;2023-06-14T07:40:09;6.85;;;5.30;;
77298;SDS011;66361;52.034;20.656;2023-06-14T07:44:14;7.18;;;5.75;;
77298;SDS011;66361;52.034;20.656;2023-06-14T07:48:18;5.72;;;4.50;;
77298;SDS011;66361;52.034;20.656;2023-06-14T07:52:21;5.57;;;4.68;;
77298;SDS011;66361;52.034;20.656;2023-06-14T07:56:26;5.82;;;4.88;;
77298;SDS011;66361;52.034;20.656;2023-06-14T08:00:29;6.70;;;4.15;;
77298;SDS011;66361;52.034;20.656;2023-06-14T08:04:33;6.00;;;5.25;;
77298;SDS011;66361;52.034;20.656;2023-06-14T08:08:37;6.00;;;4.40;;
77298;SDS011;66361;52.034;20.656;2023-06-14T08:12:41;5.38;;;4.10;;
77298;SDS011;66361;52.034;20.656;2023-06-14T08:16:45;4.82;;;3.67;;
77298;SDS011;66361;52.034;20.656;2023-06-14T08:20:48;5.10;;;3.90;;
77298;SDS011;66361;52.034;20.656;2023-06-14T08:24:51;7.47;;;3.85;;
77298;SDS011;66361;52.034;20.656;2023-06-14T08:28:56;4.97;;;3.95;;
77298;SDS011;66361;52.034;20.656;2023-06-14T08:33:00;4.03;;;3.47;;
77298;SDS011;66361;52.034;20.656;2023-06-14T08:37:16;5.93;;;3.50;;
77298;SDS011;66361;52.034;20.656;2023-06-14T08:41:20;4.10;;;3.30;;
77298;SDS011;66361;52.034;20.656;2023-06-14T08:45:27;7.38;;;3.65;;
77298;SDS011;66361;52.034;20.656;2023-06-14T08:49:32;3.90;;;3.08;;
77298;SDS011;66361;52.034;20.656;2023-06-14T08:53:38;4.13;;;3.67;;
77298;SDS011;66361;52.034;20.656;2023-06-14T08:57:43;4.90;;;3.30;;
77298;SDS011;66361;52.034;20.656;2023-06-14T09:01:49;4.85;;;4.35;;
77298;SDS011;66361;52.034;20.656;2023-06-14T09:06:12;5.63;;;3.60;;
77298;SDS011;66361;52.034;20.656;2023-06-14T09:10:17;5.38;;;3.47;;
77298;SDS011;66361;52.034;20.656;2023-06-14T09:14:21;4.90;;;3.80;;
77298;SDS011;66361;52.034;20.656;2023-06-14T09:18:34;3.85;;;3.38;;
77298;SDS011;66361;52.034;20.656;2023-06-14T09:22:38;11.13;;;4.20;;
77298;SDS011;66361;52.034;20.656;2023-06-14T09:26:42;9.52;;;4.03;;
77298;SDS011;66361;52.034;20.656;2023-06-14T09:30:47;4.85;;;3.58;;
77298;SDS011;66361;52.034;20.656;2023-06-14T09:34:52;5.28;;;3.92;;
77298;SDS011;66361;52.034;20.656;2023-06-14T09:38:55;6.63;;;4.60;;
77298;SDS011;66361;52.034;20.656;2023-06-14T09:42:59;5.10;;;3.58;;
77298;SDS011;66361;52.034;20.656;2023-06-14T09:47:03;5.93;;;3.90;;
77298;SDS011;66361;52.034;20.656;2023-06-14T09:51:08;9.85;;;4.28;;
77298;SDS011;66361;52.034;20.656;2023-06-14T09:55:13;6.10;;;4.38;;
77298;SDS011;66361;52.034;20.656;2023-06-14T09:59:18;5.30;;;4.20;;
77298;SDS011;66361;52.034;20.656;2023-06-14T10:03:28;5.38;;;3.83;;
77298;SDS011;66361;52.034;20.656;2023-06-14T10:07:52;6.20;;;4.10;;
77298;SDS011;66361;52.034;20.656;2023-06-14T10:11:59;5.03;;;3.90;;
77298;SDS011;66361;52.034;20.656;2023-06-14T10:16:05;6.72;;;3.38;;
77298;SDS011;66361;52.034;20.656;2023-06-14T10:20:18;5.80;;;3.70;;
77298;SDS011;66361;52.034;20.656;2023-06-14T10:24:30;4.97;;;3.95;;
77298;SDS011;66361;52.034;20.656;2023-06-14T10:28:37;4.30;;;3.63;;
77298;SDS011;66361;52.034;20.656;2023-06-14T10:37:07;6.65;;;4.80;;
77298;SDS011;66361;52.034;20.656;2023-06-14T10:41:15;6.03;;;4.53;;
77298;SDS011;66361;52.034;20.656;2023-06-14T10:45:21;4.85;;;3.92;;
77298;SDS011;66361;52.034;20.656;2023-06-14T10:49:36;6.25;;;4.05;;
77298;SDS011;66361;52.034;20.656;2023-06-14T10:53:44;8.05;;;5.05;;
77298;SDS011;66361;52.034;20.656;2023-06-14T10:57:49;7.38;;;5.35;;
77298;SDS011;66361;52.034;20.656;2023-06-14T11:01:57;7.93;;;4.75;;
77298;SDS011;66361;52.034;20.656;2023-06-14T11:06:15;7.25;;;5.25;;
77298;SDS011;66361;52.034;20.656;2023-06-14T11:10:26;6.50;;;5.05;;
77298;SDS011;66361;52.034;20.656;2023-06-14T11:14:40;12.82;;;6.25;;
77298;SDS011;66361;52.034;20.656;2023-06-14T11:18:43;8.65;;;5.20;;
77298;SDS011;66361;52.034;20.656;2023-06-14T11:22:47;5.75;;;5.15;;
77298;SDS011;66361;52.034;20.656;2023-06-14T11:26:50;8.43;;;6.15;;
77298;SDS011;66361;52.034;20.656;2023-06-14T11:31:00;6.47;;;4.60;;
77298;SDS011;66361;52.034;20.656;2023-06-14T11:35:04;5.60;;;4.88;;
77298;SDS011;66361;52.034;20.656;2023-06-14T11:39:09;5.20;;;4.68;;
77298;SDS011;66361;52.034;20.656;2023-06-14T11:43:14;5.47;;;4.80;;
77298;SDS011;66361;52.034;20.656;2023-06-14T11:47:20;8.40;;;5.20;;
77298;SDS011;66361;52.034;20.656;2023-06-14T11:51:23;5.60;;;4.53;;
77298;SDS011;66361;52.034;20.656;2023-06-14T11:55:26;8.82;;;3.97;;
77298;SDS011;66361;52.034;20.656;2023-06-14T11:59:29;8.40;;;5.75;;
77298;SDS011;66361;52.034;20.656;2023-06-14T12:03:34;7.93;;;4.88;;
77298;SDS011;66361;52.034;20.656;2023-06-14T12:07:39;7.13;;;5.43;;
77298;SDS011;66361;52.034;20.656;2023-06-14T12:11:43;6.20;;;5.10;;
77298;SDS011;66361;52.034;20.656;2023-06-14T12:15:53;5.70;;;4.35;;
77298;SDS011;66361;52.034;20.656;2023-06-14T12:19:58;6.43;;;4.88;;
77298;SDS011;66361;52.034;20.656;2023-06-14T12:24:08;7.07;;;4.40;;
77298;SDS011;66361;52.034;20.656;2023-06-14T12:28:14;5.80;;;4.53;;
77298;SDS011;66361;52.034;20.656;2023-06-14T12:32:17;5.55;;;5.03;;
77298;SDS011;66361;52.034;20.656;2023-06-14T12:36:25;7.32;;;5.32;;
77298;SDS011;66361;52.034;20.656;2023-06-14T12:40:29;5.63;;;4.75;;
77298;SDS011;66361;52.034;20.656;2023-06-14T12:44:32;6.47;;;4.85;;
77298;SDS011;66361;52.034;20.656;2023-06-14T12:48:39;6.00;;;4.65;;
77298;SDS011;66361;52.034;20.656;2023-06-14T12:52:44;5.22;;;4.38;;
77298;SDS011;66361;52.034;20.656;2023-06-14T12:56:47;5.47;;;4.53;;
77298;SDS011;66361;52.034;20.656;2023-06-14T13:00:52;4.68;;;3.80;;
77298;SDS011;66361;52.034;20.656;2023-06-14T13:04:55;6.63;;;4.65;;
77298;SDS011;66361;52.034;20.656;2023-06-14T13:09:01;5.47;;;4.78;;
77298;SDS011;66361;52.034;20.656;2023-06-14T13:13:05;9.20;;;4.80;;
77298;SDS011;66361;52.034;20.656;2023-06-14T13:17:10;4.72;;;4.22;;
77298;SDS011;66361;52.034;20.656;2023-06-14T13:21:14;7.10;;;4.10;;
77298;SDS011;66361;52.034;20.656;2023-06-14T13:25:18;5.15;;;4.13;;
77298;SDS011;66361;52.034;20.656;2023-06-14T13:29:22;4.78;;;3.35;;
77298;SDS011;66361;52.034;20.656;2023-06-14T13:33:25;6.47;;;3.60;;
77298;SDS011;66361;52.034;20.656;2023-06-14T13:37:31;5.20;;;3.58;;
77298;SDS011;66361;52.034;20.656;2023-06-14T13:41:36;4.03;;;3.10;;
77298;SDS011;66361;52.034;20.656;2023-06-14T13:45:39;5.07;;;3.40;;
77298;SDS011;66361;52.034;20.656;2023-06-14T13:49:42;4.68;;;2.92;;
77298;SDS011;66361;52.034;20.656;2023-06-14T13:53:45;4.28;;;3.60;;
77298;SDS011;66361;52.034;20.656;2023-06-14T13:58:00;5.57;;;3.22;;
77298;SDS011;66361;52.034;20.656;2023-06-14T14:02:03;3.88;;;3.00;;
77298;SDS011;66361;52.034;20.656;2023-06-14T14:06:10;3.30;;;2.80;;
77298;SDS011;66361;52.034;20.656;2023-06-14T14:10:13;4.53;;;3.40;;
77298;SDS011;66361;52.034;20.656;2023-06-14T14:14:18;4.05;;;3.65;;
77298;SDS011;66361;52.034;20.656;2023-06-14T14:18:21;4.45;;;3.28;;
77298;SDS011;66361;52.034;20.656;2023-06-14T14:22:25;4.68;;;3.40;;
77298;SDS011;66361;52.034;20.656;2023-06-14T14:26:28;4.72;;;3.20;;
77298;SDS011;66361;52.034;20.656;2023-06-14T14:30:32;4.43;;;3.45;;
77298;SDS011;66361;52.034;20.656;2023-06-14T14:34:36;3.47;;;2.55;;
77298;SDS011;66361;52.034;20.656;2023-06-14T14:38:39;5.82;;;3.00;;
77298;SDS011;66361;52.034;20.656;2023-06-14T14:42:42;5.10;;;3.60;;
77298;SDS011;66361;52.034;20.656;2023-06-14T14:46:47;4.75;;;3.28;;
77298;SDS011;66361;52.034;20.656;2023-06-14T14:50:50;5.15;;;2.97;;
77298;SDS011;66361;52.034;20.656;2023-06-14T14:54:55;4.15;;;3.30;;
77298;SDS011;66361;52.034;20.656;2023-06-14T14:58:58;6.35;;;3.53;;
77298;SDS011;66361;52.034;20.656;2023-06-14T15:03:02;5.45;;;3.75;;
77298;SDS011;66361;52.034;20.656;2023-06-14T15:07:06;4.88;;;4.10;;
77298;SDS011;66361;52.034;20.656;2023-06-14T15:11:12;5.85;;;4.18;;
77298;SDS011;66361;52.034;20.656;2023-06-14T15:15:15;4.93;;;4.32;;
77298;SDS011;66361;52.034;20.656;2023-06-14T15:19:20;5.25;;;3.95;;
77298;SDS011;66361;52.034;20.656;2023-06-14T15:23:23;6.03;;;4.82;;
77298;SDS011;66361;52.034;20.656;2023-06-14T15:27:26;5.40;;;3.92;;
77298;SDS011;66361;52.034;20.656;2023-06-14T15:31:30;7.40;;;4.07;;
77298;SDS011;66361;52.034;20.656;2023-06-14T15:35:34;5.22;;;4.03;;
77298;SDS011;66361;52.034;20.656;2023-06-14T15:43:44;8.02;;;4.20;;
77298;SDS011;66361;52.034;20.656;2023-06-14T15:47:50;4.13;;;3.72;;
77298;SDS011;66361;52.034;20.656;2023-06-14T15:51:54;6.13;;;4.20;;
77298;SDS011;66361;52.034;20.656;2023-06-14T15:55:58;4.35;;;3.10;;
77298;SDS011;66361;52.034;20.656;2023-06-14T16:00:01;6.63;;;5.03;;
77298;SDS011;66361;52.034;20.656;2023-06-14T16:04:05;5.20;;;4.00;;
77298;SDS011;66361;52.034;20.656;2023-06-14T16:08:10;4.85;;;4.05;;
77298;SDS011;66361;52.034;20.656;2023-06-14T16:12:24;4.03;;;3.50;;
77298;SDS011;66361;52.034;20.656;2023-06-14T16:16:27;6.10;;;3.35;;
77298;SDS011;66361;52.034;20.656;2023-06-14T16:20:30;4.20;;;3.28;;
77298;SDS011;66361;52.034;20.656;2023-06-14T16:24:34;5.40;;;4.05;;
77298;SDS011;66361;52.034;20.656;2023-06-14T16:28:38;5.28;;;3.20;;
77298;SDS011;66361;52.034;20.656;2023-06-14T16:32:43;4.15;;;3.75;;
77298;SDS011;66361;52.034;20.656;2023-06-14T16:36:47;5.07;;;3.50;;
77298;SDS011;66361;52.034;20.656;2023-06-14T16:40:52;4.32;;;3.80;;
77298;SDS011;66361;52.034;20.656;2023-06-14T16:44:56;4.95;;;3.65;;
77298;SDS011;66361;52.034;20.656;2023-06-14T16:49:03;5.47;;;3.97;;
77298;SDS011;66361;52.034;20.656;2023-06-14T16:53:07;4.63;;;4.13;;
77298;SDS011;66361;52.034;20.656;2023-06-14T16:57:11;4.93;;;3.72;;
77298;SDS011;66361;52.034;20.656;2023-06-14T17:01:14;4.78;;;3.65;;
77298;SDS011;66361;52.034;20.656;2023-06-14T17:05:18;3.80;;;3.40;;
77298;SDS011;66361;52.034;20.656;2023-06-14T17:09:21;3.38;;;3.08;;
77298;SDS011;66361;52.034;20.656;2023-06-14T17:13:26;4.50;;;3.70;;
77298;SDS011;66361;52.034;20.656;2023-06-14T17:17:29;4.68;;;3.58;;
77298;SDS011;66361;52.034;20.656;2023-06-14T17:21:33;4.97;;;4.05;;
77298;SDS011;66361;52.034;20.656;2023-06-14T17:25:37;10.02;;;3.70;;
77298;SDS011;66361;52.034;20.656;2023-06-14T17:29:41;4.05;;;3.65;;
77298;SDS011;66361;52.034;20.656;2023-06-14T17:33:45;5.00;;;4.50;;
77298;SDS011;66361;52.034;20.656;2023-06-14T17:37:48;6.05;;;4.50;;
77298;SDS011;66361;52.034;20.656;2023-06-14T17:41:51;7.13;;;4.50;;
77298;SDS011;66361;52.034;20.656;2023-06-14T17:45:55;6.22;;;4.20;;
77298;SDS011;66361;52.034;20.656;2023-06-14T17:49:59;5.82;;;4.13;;
77298;SDS011;66361;52.034;20.656;2023-06-14T17:54:04;4.75;;;4.30;;
77298;SDS011;66361;52.034;20.656;2023-06-14T17:58:07;5.05;;;4.47;;
77298;SDS011;66361;52.034;20.656;2023-06-14T18:02:12;5.32;;;4.22;;
77298;SDS011;66361;52.034;20.656;2023-06-14T18:06:16;5.00;;;4.50;;
77298;SDS011;66361;52.034;20.656;2023-06-14T18:10:20;7.75;;;4.90;;
77298;SDS011;66361;52.034;20.656;2023-06-14T18:14:24;5.65;;;4.60;;
77298;SDS011;66361;52.034;20.656;2023-06-14T18:18:28;5.13;;;4.55;;
77298;SDS011;66361;52.034;20.656;2023-06-14T18:22:31;5.40;;;4.70;;
77298;SDS011;66361;52.034;20.656;2023-06-14T18:26:34;6.70;;;5.03;;
77298;SDS011;66361;52.034;20.656;2023-06-14T18:30:37;6.85;;;5.15;;
77298;SDS011;66361;52.034;20.656;2023-06-14T18:34:48;10.23;;;5.55;;
77298;SDS011;66361;52.034;20.656;2023-06-14T18:38:53;7.43;;;6.63;;
77298;SDS011;66361;52.034;20.656;2023-06-14T18:42:56;7.18;;;5.70;;
77298;SDS011;66361;52.034;20.656;2023-06-14T18:46:59;11.35;;;7.50;;
77298;SDS011;66361;52.034;20.656;2023-06-14T18:51:04;9.13;;;7.28;;
77298;SDS011;66361;52.034;20.656;2023-06-14T18:55:08;8.35;;;6.90;;
77298;SDS011;66361;52.034;20.656;2023-06-14T18:59:11;8.02;;;7.15;;
77298;SDS011;66361;52.034;20.656;2023-06-14T19:03:14;10.18;;;7.55;;
77298;SDS011;66361;52.034;20.656;2023-06-14T19:07:19;12.90;;;9.52;;
77298;SDS011;66361;52.034;20.656;2023-06-14T19:11:23;12.98;;;10.48;;
77298;SDS011;66361;52.034;20.656;2023-06-14T19:15:26;11.13;;;10.00;;
77298;SDS011;66361;52.034;20.656;2023-06-14T19:19:31;12.35;;;10.77;;
77298;SDS011;66361;52.034;20.656;2023-06-14T19:23:36;13.65;;;11.35;;
77298;SDS011;66361;52.034;20.656;2023-06-14T19:27:39;11.30;;;9.95;;
77298;SDS011;66361;52.034;20.656;2023-06-14T19:31:42;15.27;;;12.65;;
77298;SDS011;66361;52.034;20.656;2023-06-14T19:35:45;13.50;;;12.10;;
77298;SDS011;66361;52.034;20.656;2023-06-14T19:39:50;15.30;;;11.35;;
77298;SDS011;66361;52.034;20.656;2023-06-14T19:43:53;13.50;;;11.93;;
77298;SDS011;66361;52.034;20.656;2023-06-14T19:47:57;14.40;;;12.13;;
77298;SDS011;66361;52.034;20.656;2023-06-14T19:52:20;15.52;;;12.93;;
77298;SDS011;66361;52.034;20.656;2023-06-14T19:56:26;14.18;;;11.68;;
77298;SDS011;66361;52.034;20.656;2023-06-14T20:00:29;13.85;;;10.88;;
77298;SDS011;66361;52.034;20.656;2023-06-14T20:04:34;14.00;;;12.10;;
77298;SDS011;66361;52.034;20.656;2023-06-14T20:08:37;15.32;;;12.48;;
77298;SDS011;66361;52.034;20.656;2023-06-14T20:12:42;15.65;;;13.00;;
77298;SDS011;66361;52.034;20.656;2023-06-14T20:16:45;13.43;;;11.63;;
77298;SDS011;66361;52.034;20.656;2023-06-14T20:20:49;16.23;;;13.88;;
77298;SDS011;66361;52.034;20.656;2023-06-14T20:24:52;16.08;;;14.38;;
77298;SDS011;66361;52.034;20.656;2023-06-14T20:28:57;17.60;;;13.13;;
77298;SDS011;66361;52.034;20.656;2023-06-14T20:33:00;15.65;;;14.02;;
77298;SDS011;66361;52.034;20.656;2023-06-14T20:37:04;16.30;;;13.30;;
77298;SDS011;66361;52.034;20.656;2023-06-14T20:41:08;15.75;;;12.88;;
77298;SDS011;66361;52.034;20.656;2023-06-14T20:45:12;16.30;;;13.15;;
77298;SDS011;66361;52.034;20.656;2023-06-14T20:49:16;17.13;;;15.32;;
77298;SDS011;66361;52.034;20.656;2023-06-14T20:53:19;17.05;;;14.02;;
77298;SDS011;66361;52.034;20.656;2023-06-14T20:57:23;16.73;;;13.60;;
77298;SDS011;66361;52.034;20.656;2023-06-14T21:01:27;15.02;;;12.30;;
77298;SDS011;66361;52.034;20.656;2023-06-14T21:05:37;14.57;;;12.60;;
77298;SDS011;66361;52.034;20.656;2023-06-14T21:09:40;15.55;;;12.38;;
77298;SDS011;66361;52.034;20.656;2023-06-14T21:13:46;14.70;;;11.98;;
77298;SDS011;66361;52.034;20.656;2023-06-14T21:17:51;15.93;;;13.20;;
77298;SDS011;66361;52.034;20.656;2023-06-14T21:21:54;15.63;;;13.55;;
77298;SDS011;66361;52.034;20.656;2023-06-14T21:25:57;16.00;;;13.15;;
77298;SDS011;66361;52.034;20.656;2023-06-14T21:30:01;16.80;;;13.20;;
77298;SDS011;66361;52.034;20.656;2023-06-14T21:34:05;15.40;;;12.77;;
77298;SDS011;66361;52.034;20.656;2023-06-14T21:38:08;19.30;;;14.38;;
77298;SDS011;66361;52.034;20.656;2023-06-14T21:42:13;16.27;;;14.40;;
77298;SDS011;66361;52.034;20.656;2023-06-14T21:46:17;18.05;;;13.68;;
77298;SDS011;66361;52.034;20.656;2023-06-14T21:50:21;18.23;;;14.77;;
77298;SDS011;66361;52.034;20.656;2023-06-14T21:54:26;17.48;;;14.35;;
77298;SDS011;66361;52.034;20.656;2023-06-14T22:02:31;13.80;;;12.15;;
77298;SDS011;66361;52.034;20.656;2023-06-14T22:06:36;14.55;;;12.55;;
77298;SDS011;66361;52.034;20.656;2023-06-14T22:10:45;17.05;;;12.43;;
77298;SDS011;66361;52.034;20.656;2023-06-14T22:14:50;16.00;;;13.38;;
77298;SDS011;66361;52.034;20.656;2023-06-14T22:18:54;16.90;;;13.13;;
77298;SDS011;66361;52.034;20.656;2023-06-14T22:22:59;16.10;;;13.93;;
77298;SDS011;66361;52.034;20.656;2023-06-14T22:27:03;15.93;;;13.05;;
77298;SDS011;66361;52.034;20.656;2023-06-14T22:31:10;16.10;;;12.93;;
77298;SDS011;66361;52.034;20.656;2023-06-14T22:35:16;15.43;;;13.05;;
77298;SDS011;66361;52.034;20.656;2023-06-14T22:39:21;15.40;;;11.85;;
77298;SDS011;66361;52.034;20.656;2023-06-14T22:43:27;16.23;;;14.50;;
77298;SDS011;66361;52.034;20.656;2023-06-14T22:47:32;17.77;;;14.57;;
77298;SDS011;66361;52.034;20.656;2023-06-14T22:51:35;14.25;;;12.52;;
77298;SDS011;66361;52.034;20.656;2023-06-14T22:55:41;15.85;;;14.18;;
77298;SDS011;66361;52.034;20.656;2023-06-14T22:59:44;17.83;;;14.48;;
77298;SDS011;66361;52.034;20.656;2023-06-14T23:03:47;17.40;;;15.02;;
77298;SDS011;66361;52.034;20.656;2023-06-14T23:07:51;18.33;;;14.15;;
77298;SDS011;66361;52.034;20.656;2023-06-14T23:15:58;14.77;;;12.98;;
77298;SDS011;66361;52.034;20.656;2023-06-14T23:20:02;16.35;;;13.07;;
77298;SDS011;66361;52.034;20.656;2023-06-14T23:24:08;16.45;;;13.98;;
77298;SDS011;66361;52.034;20.656;2023-06-14T23:32:18;15.38;;;12.43;;
77298;SDS011;66361;52.034;20.656;2023-06-14T23:36:21;15.38;;;12.40;;
77298;SDS011;66361;52.034;20.656;2023-06-14T23:40:32;14.35;;;12.43;;
77298;SDS011;66361;52.034;20.656;2023-06-14T23:44:37;19.63;;;13.82;;
77298;SDS011;66361;52.034;20.656;2023-06-14T23:48:42;17.90;;;13.27;;
77298;SDS011;66361;52.034;20.656;2023-06-14T23:52:45;16.17;;;12.85;;
77298;SDS011;66361;52.034;20.656;2023-06-14T23:56:48;17.50;;;13.20;;
